Terminal Aerodrome Forecast
Issued by NWS

Home | Current Version | Previous Version | Text Only | Print | Product List | Glossary On
Versions: 1 2 3 4 5 6 7 8 9 10 11 12 13 14 15
000
FTAK31 PANC 161304 AAA
TAFAVD
TAF AMD
PAVD 161304Z 1613/1712 00000KT 1SM BR BKN003 OVC060
     FM161500 VRB03KT 3SM -SHRASN BR SCT010 BKN025 OVC045
      TEMPO 1615/1618 6SM FEW010 SCT025 BKN045
     FM170600 VRB03KT P6SM VCSH SCT030 BKN060
      AMD LTD TO CLD VIS AND WIND=

USA.gov is the U.S. government's official web portal to all federal, state and local government web resources and services.